createdAt,value
2023-05-16T00:00:10.685Z,22.73
2023-05-16T00:02:39.710Z,22.85
2023-05-16T00:05:10.602Z,22.83
2023-05-16T00:07:38.689Z,20.35
2023-05-16T00:10:07.919Z,22.25
2023-05-16T00:12:36.798Z,20.17
2023-05-16T00:15:09.277Z,23.92
2023-05-16T00:17:37.333Z,24.17
2023-05-16T00:20:07.727Z,24.80
2023-05-16T00:22:35.969Z,21.42
2023-05-16T00:25:04.047Z,24.00
2023-05-16T00:27:32.166Z,24.02
2023-05-16T00:30:00.192Z,23.00
2023-05-16T00:32:29.668Z,23.77
2023-05-16T00:34:57.727Z,22.35
2023-05-16T00:37:25.839Z,24.25
2023-05-16T00:39:53.882Z,24.60
2023-05-16T00:42:22.052Z,24.95
2023-05-16T00:44:50.103Z,24.15
2023-05-16T00:47:18.223Z,24.67
2023-05-16T00:49:47.877Z,23.60
2023-05-16T00:52:15.989Z,24.33
2023-05-16T00:54:44.136Z,22.90
2023-05-16T00:57:12.248Z,23.88
2023-05-16T00:59:40.314Z,23.65
2023-05-16T01:02:08.566Z,22.08
2023-05-16T01:04:36.876Z,23.55
2023-05-16T01:07:06.523Z,24.38
2023-05-16T01:09:34.594Z,23.38
2023-05-16T01:12:06.843Z,24.95
2023-05-16T01:14:39.487Z,26.40
2023-05-16T01:17:09.626Z,26.80
2023-05-16T01:19:48.879Z,25.38
2023-05-16T01:22:32.809Z,25.25
2023-05-16T01:25:07.333Z,27.73
2023-05-16T01:27:36.900Z,30.52
2023-05-16T01:30:14.976Z,31.05
2023-05-16T01:32:44.264Z,31.20
2023-05-16T01:35:13.910Z,29.85
2023-05-16T01:37:44.036Z,30.88
2023-05-16T01:40:15.594Z,30.08
2023-05-16T01:42:46.259Z,29.98
2023-05-16T01:45:15.753Z,33.05
2023-05-16T01:47:45.348Z,32.10
2023-05-16T01:50:15.751Z,31.92
2023-05-16T01:52:47.015Z,29.65
2023-05-16T01:55:20.250Z,32.38
2023-05-16T01:57:49.850Z,33.25
2023-05-16T02:00:18.043Z,33.65
2023-05-16T02:02:46.078Z,31.45
2023-05-16T02:05:14.201Z,33.30
2023-05-16T02:07:42.238Z,34.97
2023-05-16T02:10:11.384Z,32.50
2023-05-16T02:12:39.411Z,34.90
2023-05-16T02:15:10.140Z,32.58
2023-05-16T02:17:38.312Z,33.50
2023-05-16T02:20:10.309Z,33.35
2023-05-16T02:22:39.270Z,32.95
2023-05-16T02:25:08.040Z,33.55
2023-05-16T02:27:36.341Z,32.72
2023-05-16T02:30:05.594Z,32.45
2023-05-16T02:32:35.060Z,34.72
2023-05-16T02:35:04.397Z,33.70
2023-05-16T02:37:32.429Z,31.33
2023-05-16T02:40:00.433Z,32.97
2023-05-16T02:42:29.384Z,33.53
2023-05-16T02:44:57.435Z,34.92
2023-05-16T02:47:25.688Z,34.58
2023-05-16T02:49:55.592Z,32.97
2023-05-16T02:52:23.612Z,33.42
2023-05-16T02:55:09.235Z,31.63
2023-05-16T02:57:39.727Z,32.50
2023-05-16T03:00:11.623Z,32.00
2023-05-16T03:02:39.785Z,32.33
2023-05-16T03:05:10.126Z,32.30
2023-05-16T03:07:38.572Z,33.78
2023-05-16T03:10:07.910Z,34.38
2023-05-16T03:12:36.159Z,33.17
2023-05-16T03:15:04.812Z,33.33
2023-05-16T03:17:32.888Z,34.30
2023-05-16T03:20:00.959Z,32.60
2023-05-16T03:22:30.454Z,32.00
2023-05-16T03:24:58.518Z,34.10
2023-05-16T03:27:26.559Z,33.65
2023-05-16T03:29:54.591Z,33.45
2023-05-16T03:32:22.716Z,31.67
2023-05-16T03:34:50.819Z,30.08
2023-05-16T03:37:18.856Z,32.65
2023-05-16T03:39:48.244Z,29.65
2023-05-16T03:42:17.241Z,28.23
2023-05-16T03:44:45.344Z,28.33
2023-05-16T03:47:13.381Z,29.27
2023-05-16T03:49:41.780Z,29.27
2023-05-16T03:52:09.989Z,26.35
2023-05-16T03:54:38.170Z,28.70
2023-05-16T03:57:07.666Z,26.63
2023-05-16T03:59:36.232Z,24.67
2023-05-16T04:02:04.455Z,26.73
2023-05-16T04:04:32.532Z,25.55
2023-05-16T04:07:00.688Z,26.65
2023-05-16T04:09:29.858Z,25.88
2023-05-16T04:11:57.909Z,25.05
2023-05-16T04:14:27.491Z,25.30
2023-05-16T04:16:55.575Z,24.08
2023-05-16T04:19:23.749Z,20.95
2023-05-16T04:21:52.271Z,22.90
2023-05-16T04:24:20.327Z,22.83
2023-05-16T04:26:48.624Z,21.13
2023-05-16T04:29:17.337Z,20.65
2023-05-16T04:31:46.801Z,20.20
2023-05-16T04:34:16.000Z,22.88
2023-05-16T04:36:44.032Z,21.63
2023-05-16T04:39:12.108Z,19.98
2023-05-16T04:41:40.154Z,19.63
2023-05-16T04:44:08.902Z,20.88
2023-05-16T04:46:37.079Z,21.50
2023-05-16T04:49:06.534Z,19.45
2023-05-16T04:51:34.968Z,17.42
2023-05-16T04:54:04.059Z,21.30
2023-05-16T04:56:32.127Z,18.58
2023-05-16T04:59:00.179Z,19.98
2023-05-16T05:01:28.307Z,18.10
2023-05-16T05:03:56.458Z,18.75
2023-05-16T05:06:26.013Z,20.25
2023-05-16T05:08:55.834Z,19.65
2023-05-16T05:11:23.962Z,19.90
2023-05-16T05:13:53.056Z,18.70
2023-05-16T05:16:21.509Z,20.67
2023-05-16T05:18:49.819Z,19.35
2023-05-16T05:21:18.540Z,19.88
2023-05-16T05:23:49.720Z,19.48
2023-05-16T05:26:17.823Z,19.33
2023-05-16T05:28:53.988Z,18.10
2023-05-16T05:31:29.776Z,19.20
2023-05-16T05:33:57.984Z,19.05
2023-05-16T05:36:26.074Z,17.95
2023-05-16T05:38:55.547Z,18.48
2023-05-16T05:41:23.798Z,17.63
2023-05-16T05:43:51.894Z,19.55
2023-05-16T05:46:20.115Z,16.80
2023-05-16T05:48:48.373Z,18.25
2023-05-16T05:51:16.407Z,18.65
2023-05-16T05:53:44.475Z,18.40
2023-05-16T05:56:13.933Z,18.70
2023-05-16T05:58:42.609Z,16.23
2023-05-16T06:01:12.089Z,17.25
2023-05-16T06:03:40.349Z,20.55
2023-05-16T06:06:09.226Z,16.65
2023-05-16T06:08:37.477Z,18.15
2023-05-16T06:11:05.680Z,17.60
2023-05-16T06:13:35.130Z,15.57
2023-05-16T06:16:03.282Z,15.95
2023-05-16T06:18:31.440Z,18.85
2023-05-16T06:21:05.932Z,19.08
2023-05-16T06:23:36.126Z,18.23
2023-05-16T06:26:07.885Z,18.55
2023-05-16T06:28:37.346Z,17.67
2023-05-16T06:31:05.581Z,17.83
2023-05-16T06:33:34.049Z,17.67
2023-05-16T06:36:02.155Z,17.70
2023-05-16T06:38:30.230Z,15.30
2023-05-16T06:40:58.301Z,17.45
2023-05-16T06:43:26.515Z,15.18
2023-05-16T06:45:55.974Z,15.88
2023-05-16T06:48:24.304Z,14.27
2023-05-16T06:50:52.563Z,14.32
2023-05-16T06:53:20.865Z,15.27
2023-05-16T06:55:49.094Z,15.02
2023-05-16T06:58:17.656Z,12.57
2023-05-16T07:00:45.778Z,13.80
2023-05-16T07:03:15.470Z,13.82
2023-05-16T07:05:43.791Z,13.82
2023-05-16T07:08:12.351Z,14.38
2023-05-16T07:10:40.550Z,11.77
2023-05-16T07:13:08.770Z,11.93
2023-05-16T07:15:36.871Z,12.82
2023-05-16T07:18:05.373Z,10.77
2023-05-16T07:20:34.916Z,10.93
2023-05-16T07:23:02.970Z,11.00
2023-05-16T07:25:31.336Z,9.60
2023-05-16T07:27:59.928Z,10.70
2023-05-16T07:30:30.513Z,10.38
2023-05-16T07:32:58.699Z,9.32
2023-05-16T07:35:27.104Z,9.20
2023-05-16T07:37:56.795Z,7.90
2023-05-16T07:40:28.477Z,8.93
2023-05-16T07:42:56.651Z,8.30
2023-05-16T07:45:24.981Z,9.20
2023-05-16T07:47:53.275Z,9.70
2023-05-16T07:50:21.474Z,9.73
2023-05-16T07:52:49.690Z,7.68
2023-05-16T07:55:19.467Z,8.60
2023-05-16T07:57:47.584Z,7.28
2023-05-16T08:00:16.806Z,7.90
2023-05-16T08:02:45.088Z,7.50
2023-05-16T08:05:13.260Z,7.50
2023-05-16T08:07:41.398Z,6.55
2023-05-16T08:10:13.186Z,6.88
2023-05-16T08:12:43.085Z,5.60
2023-05-16T08:15:12.252Z,4.93
2023-05-16T08:17:40.676Z,4.95
2023-05-16T08:20:09.596Z,5.15
2023-05-16T08:22:37.699Z,4.55
2023-05-16T08:25:07.152Z,3.97
2023-05-16T08:27:35.323Z,4.95
2023-05-16T08:30:05.980Z,4.13
2023-05-16T08:32:34.151Z,4.78
2023-05-16T08:35:02.241Z,4.25
2023-05-16T08:37:30.516Z,3.60
2023-05-16T08:39:59.854Z,4.40
2023-05-16T08:42:28.532Z,1.40
2023-05-16T08:44:56.788Z,3.38
2023-05-16T08:47:26.438Z,3.80
2023-05-16T08:49:54.838Z,3.40
2023-05-16T08:52:23.029Z,2.33
2023-05-16T08:55:01.947Z,2.78
2023-05-16T08:57:37.891Z,2.97
2023-05-16T09:00:12.396Z,2.63
2023-05-16T09:02:42.596Z,3.05
2023-05-16T09:05:12.214Z,2.78
2023-05-16T09:07:40.828Z,2.83
2023-05-16T09:10:09.676Z,2.05
2023-05-16T09:12:38.093Z,1.90
2023-05-16T09:15:07.842Z,1.85
2023-05-16T09:17:40.192Z,1.65
2023-05-16T09:20:16.601Z,1.25
2023-05-16T09:22:52.059Z,1.63
2023-05-16T09:25:29.410Z,1.60
2023-05-16T09:27:59.415Z,1.88
2023-05-16T09:30:30.531Z,1.75
2023-05-16T09:32:59.603Z,1.60
2023-05-16T09:38:00.488Z,1.80
2023-05-16T09:40:28.745Z,1.50
2023-05-16T09:43:04.910Z,1.92
2023-05-16T09:45:34.116Z,2.20
2023-05-16T09:48:06.634Z,2.35
2023-05-16T09:50:36.940Z,2.05
2023-05-16T09:53:05.195Z,2.03
2023-05-16T09:55:33.408Z,2.50
2023-05-16T09:58:01.546Z,1.60
2023-05-16T10:00:31.258Z,1.90
2023-05-16T10:03:01.493Z,2.00
2023-05-16T10:05:32.734Z,1.65
2023-05-16T10:08:02.196Z,1.80
2023-05-16T10:10:30.358Z,1.60
2023-05-16T10:12:58.739Z,1.50
2023-05-16T10:15:27.287Z,1.80
2023-05-16T10:17:55.612Z,1.60
2023-05-16T10:20:23.773Z,1.48
2023-05-16T10:22:52.237Z,1.83
2023-05-16T10:25:27.558Z,1.60
2023-05-16T10:27:56.040Z,1.50
2023-05-16T10:30:24.180Z,1.42
2023-05-16T10:32:52.420Z,1.20
2023-05-16T10:35:21.740Z,1.33
2023-05-16T10:37:50.053Z,1.15
2023-05-16T10:40:18.193Z,4.32
2023-05-16T10:42:55.892Z,1.20
2023-05-16T10:45:24.897Z,1.50
2023-05-16T10:47:54.340Z,1.30
2023-05-16T10:50:35.628Z,1.75
2023-05-16T10:53:17.200Z,1.63
2023-05-16T10:55:52.510Z,1.50
2023-05-16T10:58:26.262Z,1.60
2023-05-16T11:01:18.712Z,1.40
2023-05-16T11:04:03.668Z,1.38
2023-05-16T11:06:32.648Z,2.80
2023-05-16T11:09:06.655Z,3.38
2023-05-16T11:11:41.909Z,2.30
2023-05-16T11:14:11.445Z,2.05
2023-05-16T11:16:40.682Z,1.63
2023-05-16T11:19:09.094Z,1.65
2023-05-16T11:22:15.667Z,1.42
2023-05-16T11:24:51.320Z,1.40
2023-05-16T11:27:23.729Z,1.73
2023-05-16T11:29:53.295Z,1.73
2023-05-16T11:32:22.808Z,2.13
2023-05-16T11:34:51.340Z,1.75
2023-05-16T11:37:20.138Z,1.40
2023-05-16T11:39:48.683Z,3.08
2023-05-16T11:42:17.986Z,2.67
2023-05-16T11:44:46.315Z,4.18
2023-05-16T11:47:15.960Z,2.70
2023-05-16T11:49:44.114Z,2.33
2023-05-16T11:52:12.231Z,2.40
2023-05-16T11:54:41.691Z,1.70
2023-05-16T11:57:10.124Z,2.05
2023-05-16T11:59:38.637Z,1.33
2023-05-16T12:02:07.156Z,1.20
2023-05-16T12:04:39.591Z,1.40
2023-05-16T12:07:07.967Z,1.50
2023-05-16T12:09:36.233Z,1.60
2023-05-16T12:12:05.638Z,1.60
2023-05-16T12:14:33.744Z,1.80
2023-05-16T12:17:04.742Z,1.70
2023-05-16T12:19:33.089Z,1.58
2023-05-16T12:22:02.797Z,1.48
2023-05-16T12:24:34.168Z,1.40
2023-05-16T12:27:03.579Z,1.70
2023-05-16T12:29:33.135Z,1.60
2023-05-16T12:32:01.672Z,1.30
2023-05-16T12:34:33.154Z,1.80
2023-05-16T12:37:02.620Z,1.80
2023-05-16T12:39:32.236Z,1.40
2023-05-16T12:42:06.479Z,1.70
2023-05-16T12:44:34.655Z,1.55
2023-05-16T12:47:03.657Z,1.65
2023-05-16T12:49:31.821Z,1.40
2023-05-16T12:52:05.849Z,1.58
2023-05-16T12:54:35.628Z,1.42
2023-05-16T12:57:04.854Z,1.75
2023-05-16T12:59:33.256Z,2.28
2023-05-16T13:02:01.983Z,2.15
2023-05-16T13:04:31.705Z,2.10
2023-05-16T13:07:00.142Z,1.42
2023-05-16T13:09:31.355Z,1.38
2023-05-16T13:12:02.168Z,2.10
2023-05-16T13:14:30.381Z,2.03
2023-05-16T13:16:58.459Z,2.78
2023-05-16T13:19:27.302Z,2.30
2023-05-16T13:21:56.271Z,2.05
2023-05-16T13:24:24.593Z,2.72
2023-05-16T13:26:53.642Z,2.63
2023-05-16T13:29:23.121Z,2.42
2023-05-16T13:31:51.711Z,2.20
2023-05-16T13:34:19.830Z,2.22
2023-05-16T13:36:54.501Z,1.90
2023-05-16T13:39:23.669Z,1.92
2023-05-16T13:41:52.153Z,2.10
2023-05-16T13:44:20.378Z,2.17
2023-05-16T13:46:49.980Z,2.42
2023-05-16T13:49:18.406Z,2.22
2023-05-16T13:51:47.268Z,2.45
2023-05-16T13:54:15.425Z,2.35
2023-05-16T13:56:43.495Z,2.53
2023-05-16T13:59:15.241Z,2.40
2023-05-16T14:01:46.697Z,1.87
2023-05-16T14:04:16.643Z,2.22
2023-05-16T14:06:45.184Z,2.25
2023-05-16T14:09:15.360Z,1.40
2023-05-16T14:11:43.497Z,2.15
2023-05-16T14:14:11.624Z,2.47
2023-05-16T14:16:43.783Z,2.70
2023-05-16T14:19:12.057Z,2.40
2023-05-16T14:21:41.870Z,1.92
2023-05-16T14:24:10.139Z,2.13
2023-05-16T14:26:38.253Z,1.63
2023-05-16T14:29:06.396Z,2.53
2023-05-16T14:31:36.419Z,1.75
2023-05-16T14:34:04.791Z,2.13
2023-05-16T14:36:33.161Z,2.80
2023-05-16T14:39:02.929Z,2.25
2023-05-16T14:41:31.092Z,1.90
2023-05-16T14:43:59.187Z,2.80
2023-05-16T14:46:27.604Z,2.05
2023-05-16T14:48:55.818Z,2.20
2023-05-16T14:51:24.032Z,1.73
2023-05-16T14:53:52.126Z,1.63
2023-05-16T14:56:22.038Z,1.63
2023-05-16T14:58:50.096Z,1.65
2023-05-16T15:01:18.541Z,1.27
2023-05-16T15:03:54.328Z,1.67
2023-05-16T15:06:24.505Z,1.55
2023-05-16T15:08:52.804Z,1.30
2023-05-16T15:11:23.425Z,1.70
2023-05-16T15:13:51.546Z,1.70
2023-05-16T15:16:19.949Z,1.45
2023-05-16T15:18:48.198Z,1.75
2023-05-16T15:21:16.393Z,1.60
2023-05-16T15:23:44.504Z,1.73
2023-05-16T15:26:12.628Z,1.60
2023-05-16T15:28:42.094Z,1.73
2023-05-16T15:31:10.420Z,1.73
2023-05-16T15:33:38.877Z,1.73
2023-05-16T15:36:07.968Z,1.30
2023-05-16T15:38:36.572Z,2.40
2023-05-16T15:41:19.675Z,1.73
2023-05-16T15:43:55.657Z,1.50
2023-05-16T15:46:23.955Z,1.63
2023-05-16T15:48:54.073Z,1.45
2023-05-16T15:51:22.451Z,1.60
2023-05-16T15:53:50.749Z,1.73
2023-05-16T15:56:19.060Z,1.40
2023-05-16T15:58:47.529Z,1.40
2023-05-16T16:01:18.675Z,2.55
2023-05-16T16:03:47.388Z,1.73
2023-05-16T16:06:21.310Z,1.77
2023-05-16T16:08:49.403Z,1.80
2023-05-16T16:11:17.521Z,1.55
2023-05-16T16:13:45.675Z,1.65
2023-05-16T16:16:13.973Z,3.35
2023-05-16T16:18:43.944Z,10.40
2023-05-16T16:21:12.175Z,6.07
2023-05-16T16:23:40.356Z,3.05
2023-05-16T16:26:09.560Z,2.38
2023-05-16T16:28:37.812Z,5.80
2023-05-16T16:31:06.116Z,1.42
2023-05-16T16:33:34.679Z,2.22
2023-05-16T16:36:04.305Z,1.60
2023-05-16T16:38:32.432Z,1.73
2023-05-16T16:41:00.726Z,1.70
2023-05-16T16:43:35.379Z,2.35
2023-05-16T16:46:03.942Z,1.60
2023-05-16T16:48:34.308Z,1.77
2023-05-16T16:51:03.929Z,1.63
2023-05-16T16:53:32.430Z,1.42
2023-05-16T16:56:00.605Z,1.35
2023-05-16T16:58:28.724Z,1.80
2023-05-16T17:00:57.044Z,1.60
2023-05-16T17:03:25.181Z,1.60
2023-05-16T17:05:53.901Z,1.60
2023-05-16T17:08:23.463Z,1.58
2023-05-16T17:10:52.042Z,1.95
2023-05-16T17:13:20.275Z,1.80
2023-05-16T17:15:48.429Z,1.75
2023-05-16T17:18:16.714Z,1.48
2023-05-16T17:20:44.839Z,1.67
2023-05-16T17:23:12.985Z,1.40
2023-05-16T17:25:43.211Z,1.33
2023-05-16T17:28:11.429Z,1.33
2023-05-16T17:31:02.588Z,1.80
2023-05-16T17:33:31.251Z,1.52
2023-05-16T17:35:59.503Z,1.58
2023-05-16T17:38:27.860Z,1.80
2023-05-16T17:40:57.366Z,1.92
2023-05-16T17:43:25.771Z,1.42
2023-05-16T17:45:53.875Z,1.67
2023-05-16T17:48:22.021Z,1.85
2023-05-16T17:50:50.247Z,1.75
2023-05-16T17:53:18.456Z,1.90
2023-05-16T17:55:46.572Z,1.30
2023-05-16T17:58:16.255Z,1.33
2023-05-16T18:00:44.468Z,1.80
2023-05-16T18:03:12.601Z,1.95
2023-05-16T18:05:41.210Z,1.50
2023-05-16T18:08:09.312Z,1.60
2023-05-16T18:10:51.160Z,1.23
2023-05-16T18:13:22.359Z,1.48
2023-05-16T18:15:50.573Z,1.20
2023-05-16T18:18:18.707Z,1.25
2023-05-16T18:20:47.190Z,1.20
2023-05-16T18:23:15.656Z,1.33
2023-05-16T18:25:43.742Z,1.73
2023-05-16T18:28:11.788Z,1.48
2023-05-16T18:30:41.418Z,1.30
2023-05-16T18:33:10.925Z,1.40
2023-05-16T18:35:39.037Z,1.13
2023-05-16T18:38:09.114Z,1.23
2023-05-16T18:40:47.905Z,1.23
2023-05-16T18:43:16.236Z,1.33
2023-05-16T18:45:45.789Z,1.27
2023-05-16T18:48:14.011Z,1.65
2023-05-16T18:50:42.167Z,2.00
2023-05-16T18:53:10.226Z,1.17
2023-05-16T18:55:38.325Z,1.83
2023-05-16T18:58:07.038Z,1.20
2023-05-16T19:00:35.506Z,1.40
2023-05-16T19:03:05.275Z,1.10
2023-05-16T19:05:34.427Z,1.50
2023-05-16T19:08:02.832Z,1.20
2023-05-16T19:10:32.226Z,1.17
2023-05-16T19:13:06.996Z,1.45
2023-05-16T19:15:35.717Z,1.50
2023-05-16T19:18:06.739Z,1.98
2023-05-16T19:20:35.440Z,1.73
2023-05-16T19:23:03.908Z,1.40
2023-05-16T19:25:32.494Z,1.80
2023-05-16T19:28:00.690Z,1.73
2023-05-16T19:30:29.244Z,1.90
2023-05-16T19:32:57.643Z,2.03
2023-05-16T19:35:27.564Z,1.90
2023-05-16T19:37:55.807Z,2.00
2023-05-16T19:40:23.876Z,1.60
2023-05-16T19:42:52.027Z,1.65
2023-05-16T19:45:20.173Z,1.88
2023-05-16T19:47:48.287Z,2.00
2023-05-16T19:50:16.568Z,1.75
2023-05-16T19:52:46.028Z,2.50
2023-05-16T19:55:14.110Z,1.85
2023-05-16T19:57:42.208Z,2.35
2023-05-16T20:00:11.425Z,3.90
2023-05-16T20:02:39.819Z,3.35
2023-05-16T20:05:08.834Z,3.33
2023-05-16T20:07:36.966Z,2.38
2023-05-16T20:10:07.774Z,2.95
2023-05-16T20:12:35.894Z,2.60
2023-05-16T20:15:04.814Z,3.70
2023-05-16T20:17:33.113Z,3.38
2023-05-16T20:20:03.802Z,3.10
2023-05-16T20:22:31.907Z,4.78
2023-05-16T20:25:00.030Z,3.97
2023-05-16T20:27:31.657Z,4.10
2023-05-16T20:30:00.034Z,4.03
2023-05-16T20:32:28.147Z,3.92
2023-05-16T20:34:56.362Z,4.78
2023-05-16T20:37:26.760Z,3.67
2023-05-16T20:39:55.040Z,11.10
2023-05-16T20:42:23.118Z,5.95
2023-05-16T20:44:53.350Z,4.80
2023-05-16T20:47:26.426Z,3.63
2023-05-16T20:49:54.770Z,3.38
2023-05-16T20:52:23.919Z,2.55
2023-05-16T20:54:52.041Z,2.45
2023-05-16T20:57:20.126Z,2.55
2023-05-16T20:59:48.232Z,3.25
2023-05-16T21:02:17.733Z,2.47
2023-05-16T21:04:46.045Z,2.72
2023-05-16T21:07:14.237Z,3.20
2023-05-16T21:09:42.425Z,3.35
2023-05-16T21:12:10.813Z,4.22
2023-05-16T21:14:38.877Z,9.77
2023-05-16T21:17:06.975Z,7.03
2023-05-16T21:19:38.429Z,5.25
2023-05-16T21:22:06.688Z,4.50
2023-05-16T21:24:35.698Z,3.70
2023-05-16T21:27:04.080Z,3.75
2023-05-16T21:29:32.173Z,2.55
2023-05-16T21:32:00.313Z,2.75
2023-05-16T21:34:28.888Z,3.65
2023-05-16T21:36:58.762Z,2.30
2023-05-16T21:39:26.889Z,2.25
2023-05-16T21:41:55.793Z,2.72
2023-05-16T21:44:24.014Z,2.33
2023-05-16T21:46:52.109Z,2.10
2023-05-16T21:49:20.208Z,2.60
2023-05-16T21:51:48.300Z,2.60
2023-05-16T21:54:17.783Z,2.20
2023-05-16T21:56:45.949Z,2.17
2023-05-16T21:59:14.603Z,2.53
2023-05-16T22:01:42.692Z,2.65
2023-05-16T22:04:11.949Z,2.70
2023-05-16T22:06:40.298Z,2.38
2023-05-16T22:09:08.426Z,2.42
2023-05-16T22:11:37.881Z,2.30
2023-05-16T22:14:05.994Z,4.35
2023-05-16T22:16:34.375Z,1.85
2023-05-16T22:19:03.449Z,2.42
2023-05-16T22:21:31.738Z,2.72
2023-05-16T22:23:59.795Z,1.70
2023-05-16T22:26:27.870Z,1.58
2023-05-16T22:28:57.325Z,1.63
2023-05-16T22:31:25.402Z,1.77
2023-05-16T22:33:53.540Z,1.90
2023-05-16T22:36:21.677Z,1.88
2023-05-16T22:38:50.430Z,1.60
2023-05-16T22:41:18.535Z,1.70
2023-05-16T22:43:46.650Z,1.85
2023-05-16T22:46:16.150Z,1.85
2023-05-16T22:48:44.240Z,2.08
2023-05-16T22:51:12.364Z,1.60
2023-05-16T22:53:40.718Z,1.80
2023-05-16T22:56:09.064Z,1.90
2023-05-16T22:58:37.193Z,1.83
2023-05-16T23:01:05.317Z,1.30
2023-05-16T23:03:35.229Z,2.33
2023-05-16T23:06:03.361Z,1.95
2023-05-16T23:08:31.477Z,1.60
2023-05-16T23:10:59.569Z,2.35
2023-05-16T23:13:27.667Z,2.15
2023-05-16T23:15:55.820Z,2.00
2023-05-16T23:18:24.009Z,1.67
2023-05-16T23:20:53.472Z,2.40
2023-05-16T23:23:21.559Z,2.10
2023-05-16T23:25:49.757Z,1.85
2023-05-16T23:28:18.973Z,1.65
2023-05-16T23:30:47.044Z,1.60
2023-05-16T23:33:15.213Z,2.28
2023-05-16T23:35:43.334Z,1.98
2023-05-16T23:38:12.782Z,1.90
2023-05-16T23:40:40.898Z,2.38
2023-05-16T23:43:08.931Z,1.70
2023-05-16T23:45:37.478Z,1.60
2023-05-16T23:48:06.231Z,1.90
2023-05-16T23:50:34.381Z,2.30
2023-05-16T23:53:02.511Z,1.90
2023-05-16T23:55:31.985Z,2.10
2023-05-16T23:58:00.069Z,1.60
